| time (UTC) | temp F | wind direction | speed MPH | gust MPH | rain 1hr in | rain 24hr in | rain mn in | humidity % | barometer mb |
| 20260508211526 | 51 | 277 | 0.0 | 8.0 | 0.00 | 0.00 | 0.00 | 53 | 1011.3 |
| 20260508210112 | 50 | 268 | 2.0 | 13.0 | 0.00 | 0.00 | 0.00 | 58 | 1011.2 |
| 20260508204536 | 50 | 234 | 0.0 | 5.0 | 0.00 | 0.00 | 0.00 | 60 | 1011.3 |
| 20260508203119 | 51 | 36 | 0.0 | 7.0 | 0.00 | 0.00 | 0.00 | 61 | 1011.2 |
| 20260508201540 | 49 | 228 | 0.0 | 6.0 | 0.00 | 0.00 | 0.00 | 65 | 1011.3 |
| 20260508200129 | 49 | 232 | 0.0 | 3.0 | 0.00 | 0.00 | 0.00 | 66 | 1011.4 |
| 20260508194603 | 46 | 270 | 0.0 | 4.0 | 0.00 | 0.00 | 0.00 | 69 | 1011.3 |
| 20260508193006 | 45 | 281 | 1.0 | 4.0 | 0.00 | 0.00 | 0.00 | 67 | 1011.5 |
| 20260508191608 | 44 | 329 | 0.0 | 4.0 | 0.00 | 0.00 | 0.00 | 67 | 1011.6 |
| 20260508190019 | 44 | 281 | 0.0 | 5.0 | 0.00 | 0.00 | 0.00 | 70 | 1011.7 |
| 20260508184620 | 45 | 309 | 1.0 | 5.0 | 0.00 | 0.00 | 0.00 | 67 | 1011.7 |
| 20260508181624 | 46 | 269 | 0.0 | 3.0 | 0.00 | 0.00 | 0.00 | 66 | 1011.5 |
| 20260508180042 | 46 | 22 | 0.0 | 4.0 | 0.00 | 0.00 | 0.00 | 65 | 1011.4 |
| 20260508174638 | 45 | 254 | 1.0 | 3.0 | 0.00 | 0.00 | 0.00 | 67 | 1011.5 |
| 20260508173052 | 46 | 273 | 0.0 | 5.0 | 0.00 | 0.00 | 0.00 | 67 | 1011.5 |
| 20260508171511 | 48 | 288 | 2.0 | 10.0 | 0.00 | 0.00 | 0.00 | 56 | 1011.5 |
| 20260508170105 | 50 | 332 | 2.0 | 7.0 | 0.00 | 0.00 | 0.00 | 50 | 1011.1 |
| 20260508164521 | 51 | 249 | 1.0 | 12.0 | 0.00 | 0.00 | 0.00 | 50 | 1011.1 |
| 20260508163113 | 53 | 284 | 1.0 | 6.0 | 0.00 | 0.00 | 0.00 | 44 | 1010.7 |
| 20260508161528 | 54 | 306 | 0.0 | 8.0 | 0.00 | 0.00 | 0.00 | 42 | 1010.5 |
| 20260508160117 | 54 | 224 | 1.0 | 9.0 | 0.00 | 0.00 | 0.00 | 44 | 1010.5 |
| 20260508154534 | 53 | 225 | 0.0 | 7.0 | 0.00 | 0.00 | 0.00 | 47 | 1010.8 |
| 20260508153130 | 51 | 280 | 1.0 | 9.0 | 0.00 | 0.00 | 0.00 | 48 | 1011.0 |
| 20260508150008 | 51 | 287 | 0.0 | 9.0 | 0.00 | 0.00 | 0.00 | 49 | 1011.1 |
| 20260508144605 | 52 | 254 | 2.0 | 8.0 | 0.00 | 0.00 | 0.00 | 50 | 1011.2 |
| 20260508143041 | 50 | 270 | 2.0 | 8.0 | 0.00 | 0.00 | 0.00 | 51 | 1010.8 |
| 20260508141607 | 49 | 256 | 1.0 | 5.0 | 0.00 | 0.00 | 0.00 | 52 | 1011.0 |
| 20260508140023 | 50 | 269 | 1.0 | 9.0 | 0.00 | 0.00 | 0.00 | 52 | 1011.2 |
| 20260508134615 | 50 | 317 | 0.0 | 7.0 | 0.00 | 0.00 | 0.00 | 53 | 1011.2 |
| 20260508133028 | 48 | 318 | 0.0 | 4.0 | 0.00 | 0.00 | 0.00 | 55 | 1011.3 |
| 20260508131616 | 48 | 35 | 1.0 | 5.0 | 0.00 | 0.00 | 0.00 | 56 | 1011.7 |
| 20260508130035 | 47 | 289 | 0.0 | 4.0 | 0.00 | 0.00 | 0.00 | 56 | 1011.9 |
| 20260508124629 | 46 | 337 | 1.0 | 9.0 | 0.00 | 0.00 | 0.00 | 56 | 1011.9 |
| 20260508123050 | 46 | 297 | 0.0 | 4.0 | 0.00 | 0.00 | 0.00 | 56 | 1011.7 |
| 20260508121504 | 44 | 313 | 1.0 | 9.0 | 0.00 | 0.00 | 0.00 | 56 | 1011.7 |
| 20260508120113 | 43 | 286 | 1.0 | 6.0 | 0.00 | 0.00 | 0.00 | 59 | 1011.7 |
| 20260508114513 | 43 | 304 | 2.0 | 7.0 | 0.00 | 0.00 | 0.00 | 57 | 1011.7 |
| 20260508113108 | 42 | 270 | 1.0 | 6.0 | 0.00 | 0.00 | 0.00 | 58 | 1011.7 |
| 20260508111523 | 41 | 260 | 0.0 | 4.0 | 0.00 | 0.00 | 0.00 | 61 | 1011.5 |
| 20260508104533 | 39 | 350 | 0.0 | 1.0 | 0.00 | 0.00 | 0.00 | 62 | 1011.2 |
| 20260508103130 | 38 | 350 | 0.0 | 0.0 | 0.00 | 0.00 | 0.00 | 63 | 1011.0 |
| 20260508101537 | 38 | 350 | 0.0 | 0.0 | 0.00 | 0.00 | 0.00 | 64 | 1010.8 |
| 20260508100131 | 37 | 350 | 0.0 | 0.0 | 0.00 | 0.00 | 0.00 | 65 | 1010.7 |
| 20260508094547 | 37 | 350 | 0.0 | 0.0 | 0.00 | 0.00 | 0.00 | 66 | 1010.5 |
| 20260508093009 | 37 | 350 | 0.0 | 0.0 | 0.00 | 0.00 | 0.00 | 64 | 1010.4 |
| 20260508091611 | 38 | 350 | 0.0 | 0.0 | 0.00 | 0.00 | 0.00 | 61 | 1010.3 |
| 20260508090019 | 38 | 350 | 0.0 | 0.0 | 0.00 | 0.00 | 0.00 | 60 | 1010.1 |
| 20260508084615 | 39 | 350 | 0.0 | 0.0 | 0.00 | 0.00 | 0.00 | 60 | 1010.0 |
| 20260508083035 | 39 | 45 | 0.0 | 0.0 | 0.00 | 0.00 | 0.00 | 59 | 1010.0 |
| 20260508081616 | 39 | 45 | 0.0 | 0.0 | 0.00 | 0.00 | 0.00 | 58 | 1010.1 |
| 20260508080031 | 39 | 45 | 0.0 | 0.0 | 0.00 | 0.00 | 0.00 | 59 | 1010.1 |
| 20260508073048 | 39 | 45 | 0.0 | 2.0 | 0.00 | 0.00 | 0.00 | 59 | 1010.0 |
| 20260508071639 | 39 | 46 | 0.0 | 0.0 | 0.00 | 0.00 | 0.00 | 60 | 1009.9 |
| 20260508070043 | 39 | 46 | 0.0 | 0.0 | 0.00 | 0.00 | 0.00 | 61 | 1009.9 |
| 20260508064634 | 39 | 46 | 0.0 | 0.0 | 0.00 | 0.01 | 0.00 | 62 | 1009.8 |
| 20260508063055 | 39 | 46 | 0.0 | 0.0 | 0.00 | 0.01 | 0.00 | 62 | 1009.6 |
| 20260508061510 | 39 | 46 | 0.0 | 1.0 | 0.00 | 0.01 | 0.00 | 60 | 1009.2 |
| 20260508054514 | 39 | 46 | 0.0 | 0.0 | 0.00 | 0.01 | 0.00 | 60 | 1009.3 |
| 20260508053057 | 39 | 46 | 0.0 | 0.0 | 0.00 | 0.01 | 0.00 | 59 | 1009.3 |
| 20260508051519 | 40 | 46 | 0.0 | 0.0 | 0.00 | 0.01 | 0.00 | 57 | 1009.3 |
| 20260508050114 | 40 | 46 | 0.0 | 2.0 | 0.00 | 0.01 | 0.00 | 60 | 1009.2 |
| 20260508044529 | 40 | 46 | 0.0 | 0.0 | 0.00 | 0.01 | 0.00 | 58 | 1009.5 |
| 20260508041543 | 41 | 46 | 0.0 | 3.0 | 0.00 | 0.01 | 0.00 | 61 | 1009.5 |
| 20260508040004 | 41 | 302 | 0.0 | 1.0 | 0.00 | 0.01 | 0.00 | 60 | 1009.7 |
| 20260508034612 | 41 | 302 | 0.0 | 0.0 | 0.00 | 0.01 | 0.01 | 59 | 1009.7 |
| 20260508033033 | 41 | 302 | 0.0 | 0.0 | 0.00 | 0.01 | 0.01 | 57 | 1009.8 |
| 20260508031628 | 41 | 302 | 0.0 | 0.0 | 0.00 | 0.01 | 0.01 | 56 | 1009.8 |
| 20260508030045 | 42 | 302 | 0.0 | 0.0 | 0.00 | 0.01 | 0.01 | 55 | 1009.7 |
| 20260508024506 | 43 | 302 | 0.0 | 0.0 | 0.00 | 0.02 | 0.01 | 55 | 1009.8 |
| 20260508023101 | 43 | 302 | 0.0 | 1.0 | 0.00 | 0.02 | 0.01 | 52 | 1009.8 |
| 20260508021510 | 43 | 302 | 0.0 | 1.0 | 0.00 | 0.02 | 0.01 | 51 | 1009.8 |
| 20260508020105 | 44 | 302 | 0.0 | 2.0 | 0.00 | 0.02 | 0.01 | 50 | 1009.7 |
| 20260508014514 | 44 | 302 | 0.0 | 2.0 | 0.00 | 0.06 | 0.01 | 49 | 1009.7 |
| 20260508013104 | 44 | 302 | 0.0 | 3.0 | 0.00 | 0.06 | 0.01 | 48 | 1009.5 |
| 20260508010110 | 45 | 338 | 0.0 | 3.0 | 0.00 | 0.06 | 0.01 | 48 | 1009.3 |
| 20260508004528 | 46 | 316 | 0.0 | 4.0 | 0.00 | 0.10 | 0.01 | 48 | 1009.1 |
| 20260508003120 | 46 | 275 | 0.0 | 7.0 | 0.00 | 0.10 | 0.01 | 48 | 1008.8 |
| 20260508001541 | 47 | 314 | 0.0 | 3.0 | 0.00 | 0.10 | 0.01 | 49 | 1008.8 |
| 20260508000120 | 47 | 287 | 0.0 | 1.0 | 0.00 | 0.10 | 0.01 | 48 | 1008.8 |
| 20260507234545 | 48 | 287 | 0.0 | 3.0 | 0.00 | 0.10 | 0.01 | 46 | 1008.7 |
| 20260507233134 | 49 | 319 | 1.0 | 10.0 | 0.00 | 0.10 | 0.01 | 44 | 1008.5 |
| 20260507231552 | 50 | 313 | 1.0 | 7.0 | 0.00 | 0.10 | 0.01 | 45 | 1008.3 |
| 20260507230024 | 50 | 261 | 1.0 | 5.0 | 0.00 | 0.10 | 0.01 | 45 | 1008.3 |
| 20260507224608 | 51 | 271 | 1.0 | 7.0 | 0.00 | 0.10 | 0.01 | 45 | 1008.3 |
| 20260507223030 | 51 | 304 | 1.0 | 9.0 | 0.00 | 0.10 | 0.01 | 44 | 1008.2 |
| 20260507221626 | 51 | 323 | 2.0 | 18.0 | 0.00 | 0.10 | 0.01 | 44 | 1008.3 |
| 20260507214635 | 52 | 261 | 3.0 | 10.0 | 0.00 | 0.17 | 0.01 | 43 | 1008.1 |
| 20260507213054 | 53 | 319 | 2.0 | 8.0 | 0.00 | 0.17 | 0.01 | 43 | 1008.1 |
| 20260507211532 | 53 | 315 | 0.0 | 7.0 | 0.00 | 0.17 | 0.01 | 45 | 1007.9 |